sensor_id;sensor_type;location;lat;lon;timestamp;P1;P2;P0
57798;PMS7003;43626;53.866;30.298;2022-12-18T00:00:12;36.8;30.8;16.4
57798;PMS7003;43626;53.866;30.298;2022-12-18T00:05:10;37.4;26.4;14.4
57798;PMS7003;43626;53.866;30.298;2022-12-18T00:09:46;37.4;26.4;14.4
57798;PMS7003;43626;53.866;30.298;2022-12-18T00:14:26;31;27;14.2
57798;PMS7003;43626;53.866;30.298;2022-12-18T00:20:00;33.8;27.3;14.5
57798;PMS7003;43626;53.866;30.298;2022-12-18T00:25:12;34.4;27.2;14
57798;PMS7003;43626;53.866;30.298;2022-12-18T00:30:10;34;26.6;13.6
57798;PMS7003;43626;53.866;30.298;2022-12-18T00:34:57;34;26.6;13.6
57798;PMS7003;43626;53.866;30.298;2022-12-18T00:39:48;33.2;26.2;13.6
57798;PMS7003;43626;53.866;30.298;2022-12-18T00:44:48;33.2;25.6;14.4
57798;PMS7003;43626;53.866;30.298;2022-12-18T00:49:56;30;26;13.6
57798;PMS7003;43626;53.866;30.298;2022-12-18T00:55:10;27.8;22;10.8
57798;PMS7003;43626;53.866;30.298;2022-12-18T00:59:46;27.8;22;10.8
57798;PMS7003;43626;53.866;30.298;2022-12-18T01:04:44;27.2;21;11.6
57798;PMS7003;43626;53.866;30.298;2022-12-18T01:09:44;24.4;19.8;10.4
57798;PMS7003;43626;53.866;30.298;2022-12-18T01:14:58;26.2;21.2;11.2
57798;PMS7003;43626;53.866;30.298;2022-12-18T01:20:16;25.4;19;10.6
57798;PMS7003;43626;53.866;30.298;2022-12-18T01:25:00;25.4;19;10.6
57798;PMS7003;43626;53.866;30.298;2022-12-18T01:30:04;23.2;17;9.6
57798;PMS7003;43626;53.866;30.298;2022-12-18T01:34:26;22;17.6;9.6
57798;PMS7003;43626;53.866;30.298;2022-12-18T01:40:00;20.6;16.2;9.8
57798;PMS7003;43626;53.866;30.298;2022-12-18T01:45:28;18.8;15;8.2
57798;PMS7003;43626;53.866;30.298;2022-12-18T01:49:26;18.8;15;8.2
57798;PMS7003;43626;53.866;30.298;2022-12-18T01:54:40;22.8;16.4;8.6
57798;PMS7003;43626;53.866;30.298;2022-12-18T01:59:47;23.6;18.2;9.2
57798;PMS7003;43626;53.866;30.298;2022-12-18T02:05:15;23.8;18;10.4
57798;PMS7003;43626;53.866;30.298;2022-12-18T02:10:15;19.2;17;9
57798;PMS7003;43626;53.866;30.298;2022-12-18T02:15:04;19.2;17;9
57798;PMS7003;43626;53.866;30.298;2022-12-18T02:20:05;19.8;15;9.5
57798;PMS7003;43626;53.866;30.298;2022-12-18T02:24:40;20.4;16.2;9.2
57798;PMS7003;43626;53.866;30.298;2022-12-18T02:30:14;23.6;18.8;10.4
57798;PMS7003;43626;53.866;30.298;2022-12-18T02:35:15;23.2;18.8;9.8
57798;PMS7003;43626;53.866;30.298;2022-12-18T02:40:14;21.8;16.2;9.2
57798;PMS7003;43626;53.866;30.298;2022-12-18T02:44:49;21.8;16.2;9.2
57798;PMS7003;43626;53.866;30.298;2022-12-18T02:49:40;19;17;10
57798;PMS7003;43626;53.866;30.298;2022-12-18T02:55:18;24;18.2;10.6
57798;PMS7003;43626;53.866;30.298;2022-12-18T03:00:16;20.4;17.4;10
57798;PMS7003;43626;53.866;30.298;2022-12-18T03:05:15;21.4;16.4;9.2
57798;PMS7003;43626;53.866;30.298;2022-12-18T03:10:02;21.4;16.4;9.2
57798;PMS7003;43626;53.866;30.298;2022-12-18T03:14:52;20.4;15.6;8.2
57798;PMS7003;43626;53.866;30.298;2022-12-18T03:20:14;21.6;18.2;10
57798;PMS7003;43626;53.866;30.298;2022-12-18T03:25:13;23.8;17.4;9.8
57798;PMS7003;43626;53.866;30.298;2022-12-18T03:29:48;23.8;17.4;9.8
57798;PMS7003;43626;53.866;30.298;2022-12-18T03:34:48;19;15.8;8.4
57798;PMS7003;43626;53.866;30.298;2022-12-18T03:39:50;18.2;13.4;7.6
57798;PMS7003;43626;53.866;30.298;2022-12-18T03:45:13;18.2;15.8;9.2
57798;PMS7003;43626;53.866;30.298;2022-12-18T03:50:15;20.8;16.2;9.6
57798;PMS7003;43626;53.866;30.298;2022-12-18T03:55:00;20.8;16.2;9.6
57798;PMS7003;43626;53.866;30.298;2022-12-18T04:00:06;19.6;15.6;8.6
57798;PMS7003;43626;53.866;30.298;2022-12-18T04:04:38;19.2;15.6;9
57798;PMS7003;43626;53.866;30.298;2022-12-18T04:10:16;16.8;14.6;8.6
57798;PMS7003;43626;53.866;30.298;2022-12-18T04:15:02;16.8;14.6;8.6
57798;PMS7003;43626;53.866;30.298;2022-12-18T04:20:02;16.8;14;7.5
57798;PMS7003;43626;53.866;30.298;2022-12-18T04:24:50;18.6;14.6;8.2
57798;PMS7003;43626;53.866;30.298;2022-12-18T04:29:50;17.6;13.4;6.4
57798;PMS7003;43626;53.866;30.298;2022-12-18T04:35:16;17.2;14;7.4
57798;PMS7003;43626;53.866;30.298;2022-12-18T04:39:36;17.2;14;7.4
57798;PMS7003;43626;53.866;30.298;2022-12-18T04:45:00;17.2;11.2;6.2
57798;PMS7003;43626;53.866;30.298;2022-12-18T04:50:05;17.2;14.6;7.6
57798;PMS7003;43626;53.866;30.298;2022-12-18T04:54:26;15.8;12.8;7.4
57798;PMS7003;43626;53.866;30.298;2022-12-18T05:00:14;16;13.6;7.4
57798;PMS7003;43626;53.866;30.298;2022-12-18T05:04:28;16;13.6;7.4
57798;PMS7003;43626;53.866;30.298;2022-12-18T05:09:38;16.8;12.2;7
57798;PMS7003;43626;53.866;30.298;2022-12-18T05:14:50;16.4;12;6.6
57798;PMS7003;43626;53.866;30.298;2022-12-18T05:19:48;17.2;13.2;8.6
57798;PMS7003;43626;53.866;30.298;2022-12-18T05:25:14;20.2;13.8;6.6
57798;PMS7003;43626;53.866;30.298;2022-12-18T05:29:26;20.2;13.8;6.6
57798;PMS7003;43626;53.866;30.298;2022-12-18T05:35:03;16.8;12.8;6.2
57798;PMS7003;43626;53.866;30.298;2022-12-18T05:39:54;13;11.8;6.6
57798;PMS7003;43626;53.866;30.298;2022-12-18T05:44:38;17;12;6.4
57798;PMS7003;43626;53.866;30.298;2022-12-18T05:50:14;17.8;12.8;6.8
57798;PMS7003;43626;53.866;30.298;2022-12-18T05:55:02;17.8;12.8;6.8
57798;PMS7003;43626;53.866;30.298;2022-12-18T05:59:26;15.2;11.4;5.8
57798;PMS7003;43626;53.866;30.298;2022-12-18T06:04:50;16.4;12.6;8.2
57798;PMS7003;43626;53.866;30.298;2022-12-18T06:09:50;14.4;12.8;6.2
57798;PMS7003;43626;53.866;30.298;2022-12-18T06:15:12;16.2;14.4;7.4
57798;PMS7003;43626;53.866;30.298;2022-12-18T06:19:38;16.2;14.4;7.4
57798;PMS7003;43626;53.866;30.298;2022-12-18T06:25:02;18.8;13.8;7.3
57798;PMS7003;43626;53.866;30.298;2022-12-18T06:29:56;18.4;13.4;7.2
57798;PMS7003;43626;53.866;30.298;2022-12-18T06:34:52;15.4;13.6;7.6
57798;PMS7003;43626;53.866;30.298;2022-12-18T06:40:12;15.2;13.2;7
57798;PMS7003;43626;53.866;30.298;2022-12-18T06:44:52;15.2;13.2;7
57798;PMS7003;43626;53.866;30.298;2022-12-18T06:49:50;16.4;13.6;6.8
57798;PMS7003;43626;53.866;30.298;2022-12-18T06:54:50;18.2;13.8;7
57798;PMS7003;43626;53.866;30.298;2022-12-18T07:00:05;14.8;12.8;6.4
57798;PMS7003;43626;53.866;30.298;2022-12-18T07:05:14;15.6;12;7.2
57798;PMS7003;43626;53.866;30.298;2022-12-18T07:09:50;15.6;12;7.2
57798;PMS7003;43626;53.866;30.298;2022-12-18T07:15:03;15.4;12.8;7.4
57798;PMS7003;43626;53.866;30.298;2022-12-18T07:20:03;18.2;14;7.4
57798;PMS7003;43626;53.866;30.298;2022-12-18T07:24:52;20;16;8
57798;PMS7003;43626;53.866;30.298;2022-12-18T07:30:16;22.4;17.4;9.4
57798;PMS7003;43626;53.866;30.298;2022-12-18T07:35:16;20;15.8;8.8
57798;PMS7003;43626;53.866;30.298;2022-12-18T07:39:36;20;15.8;8.8
57798;PMS7003;43626;53.866;30.298;2022-12-18T07:45:05;16.4;14;8.8
57798;PMS7003;43626;53.866;30.298;2022-12-18T07:49:48;17.4;14;7.4
57798;PMS7003;43626;53.866;30.298;2022-12-18T07:55:16;19.2;15;8.8
57798;PMS7003;43626;53.866;30.298;2022-12-18T07:59:38;19.2;15;8.8
57798;PMS7003;43626;53.866;30.298;2022-12-18T08:05:14;16;13;7.8
57798;PMS7003;43626;53.866;30.298;2022-12-18T08:10:07;16;13;7.8
57798;PMS7003;43626;53.866;30.298;2022-12-18T08:14:26;18.2;13.8;7.8
57798;PMS7003;43626;53.866;30.298;2022-12-18T08:20:16;17;12.8;6.8
57798;PMS7003;43626;53.866;30.298;2022-12-18T08:25:00;17;12.8;6.8
57798;PMS7003;43626;53.866;30.298;2022-12-18T08:29:38;14;12.2;6
57798;PMS7003;43626;53.866;30.298;2022-12-18T08:34:26;19.6;15.6;8.6
57798;PMS7003;43626;53.866;30.298;2022-12-18T08:40:05;25.6;17.8;10.4
57798;PMS7003;43626;53.866;30.298;2022-12-18T08:45:16;22.2;15.4;8.8
57798;PMS7003;43626;53.866;30.298;2022-12-18T08:49:38;22.2;15.4;8.8
57798;PMS7003;43626;53.866;30.298;2022-12-18T08:54:48;15.3;12.8;6.8
57798;PMS7003;43626;53.866;30.298;2022-12-18T08:59:53;17.2;12;7
57798;PMS7003;43626;53.866;30.298;2022-12-18T09:04:38;18.2;11.8;6.6
57798;PMS7003;43626;53.866;30.298;2022-12-18T09:10:03;14.6;12.2;5.8
57798;PMS7003;43626;53.866;30.298;2022-12-18T09:15:03;20.2;15.2;8.2
57798;PMS7003;43626;53.866;30.298;2022-12-18T09:19:52;16.2;13.6;7
57798;PMS7003;43626;53.866;30.298;2022-12-18T09:24:38;17.6;14.2;6.8
57798;PMS7003;43626;53.866;30.298;2022-12-18T09:30:14;12.8;11;6
57798;PMS7003;43626;53.866;30.298;2022-12-18T09:35:16;10.8;8.8;4.6
57798;PMS7003;43626;53.866;30.298;2022-12-18T09:39:26;10.8;8.8;4.6
57798;PMS7003;43626;53.866;30.298;2022-12-18T09:44:39;13;9.8;4.6
57798;PMS7003;43626;53.866;30.298;2022-12-18T09:49:52;12;10.2;5.6
57798;PMS7003;43626;53.866;30.298;2022-12-18T09:54:29;11.3;9.3;4.8
57798;PMS7003;43626;53.866;30.298;2022-12-18T09:59:59;13.8;10;4.6
57798;PMS7003;43626;53.866;30.298;2022-12-18T10:05:02;11.6;9.8;4.8
57798;PMS7003;43626;53.866;30.298;2022-12-18T10:09:51;14.8;10.6;5.6
57798;PMS7003;43626;53.866;30.298;2022-12-18T10:14:27;15.6;11.8;7
57798;PMS7003;43626;53.866;30.298;2022-12-18T10:20:13;21.2;17.2;9.6
57798;PMS7003;43626;53.866;30.298;2022-12-18T10:25:15;35.4;28.8;16.2
57798;PMS7003;43626;53.866;30.298;2022-12-18T10:29:26;35.4;28.8;16.2
57798;PMS7003;43626;53.866;30.298;2022-12-18T10:34:36;17.6;14.2;7.6
57798;PMS7003;43626;53.866;30.298;2022-12-18T10:39:26;13.2;11.8;6.4
57798;PMS7003;43626;53.866;30.298;2022-12-18T10:44:26;20.4;16.6;10.2
57798;PMS7003;43626;53.866;30.298;2022-12-18T10:50:01;18;12.6;7
57798;PMS7003;43626;53.866;30.298;2022-12-18T10:54:59;14.5;11.5;6
57798;PMS7003;43626;53.866;30.298;2022-12-18T10:59:51;19;13.8;7.6
57798;PMS7003;43626;53.866;30.298;2022-12-18T11:04:49;14.4;9.8;6
57798;PMS7003;43626;53.866;30.298;2022-12-18T11:10:15;17;13.2;7.6
57798;PMS7003;43626;53.866;30.298;2022-12-18T11:15:15;15.4;12.4;7.2
57798;PMS7003;43626;53.866;30.298;2022-12-18T11:19:37;15.4;12.4;7.2
57798;PMS7003;43626;53.866;30.298;2022-12-18T11:24:52;15.2;12;7.4
57798;PMS7003;43626;53.866;30.298;2022-12-18T11:29:51;17.8;14.6;8.4
57798;PMS7003;43626;53.866;30.298;2022-12-18T11:34:27;16.2;13;7.4
57798;PMS7003;43626;53.866;30.298;2022-12-18T11:40:01;14.6;12.4;6.8
57798;PMS7003;43626;53.866;30.298;2022-12-18T11:45:03;19.4;14.8;8.6
57798;PMS7003;43626;53.866;30.298;2022-12-18T11:49:52;17;13.6;8.6
57798;PMS7003;43626;53.866;30.298;2022-12-18T11:54:51;16.8;13.8;7.8
57798;PMS7003;43626;53.866;30.298;2022-12-18T12:00:17;19.6;14.4;9.2
57798;PMS7003;43626;53.866;30.298;2022-12-18T12:05:06;19.6;14.4;9.2
57798;PMS7003;43626;53.866;30.298;2022-12-18T12:09:27;21.8;17.8;10.6
57798;PMS7003;43626;53.866;30.298;2022-12-18T12:14:52;27.4;21.6;11.4
57798;PMS7003;43626;53.866;30.298;2022-12-18T12:19:53;24;20.4;11.6
57798;PMS7003;43626;53.866;30.298;2022-12-18T12:24:42;18.6;15.4;8.4
57798;PMS7003;43626;53.866;30.298;2022-12-18T12:30:03;18.4;16;9.8
57798;PMS7003;43626;53.866;30.298;2022-12-18T12:35:07;19;15.8;9.8
57798;PMS7003;43626;53.866;30.298;2022-12-18T12:39:53;25.6;21.4;12.6
57798;PMS7003;43626;53.866;30.298;2022-12-18T12:44:49;31.4;23.8;14.6
57798;PMS7003;43626;53.866;30.298;2022-12-18T12:50:17;27;20.8;12.2
57798;PMS7003;43626;53.866;30.298;2022-12-18T12:55:17;24.5;20.3;11.8
57798;PMS7003;43626;53.866;30.298;2022-12-18T12:59:28;24.5;20.3;11.8
57798;PMS7003;43626;53.866;30.298;2022-12-18T13:04:39;25.6;20.2;11.8
57798;PMS7003;43626;53.866;30.298;2022-12-18T13:10:23;20.4;17.4;10.8
57798;PMS7003;43626;53.866;30.298;2022-12-18T13:14:28;22;15.8;9.4
57798;PMS7003;43626;53.866;30.298;2022-12-18T13:20:17;27;20.8;12.6
57798;PMS7003;43626;53.866;30.298;2022-12-18T13:25:31;35.6;29.6;17.2
57798;PMS7003;43626;53.866;30.298;2022-12-18T13:29:53;35.6;29.6;17.2
57798;PMS7003;43626;53.866;30.298;2022-12-18T13:34:39;27.8;23.4;13.2
57798;PMS7003;43626;53.866;30.298;2022-12-18T13:40:20;46.8;36;22.6
57798;PMS7003;43626;53.866;30.298;2022-12-18T13:45:22;97;76.2;42.6
57798;PMS7003;43626;53.866;30.298;2022-12-18T13:49:39;73;53;31
57798;PMS7003;43626;53.866;30.298;2022-12-18T13:54:50;48;38.6;22
57798;PMS7003;43626;53.866;30.298;2022-12-18T14:00:16;64.4;49.6;27.6
57798;PMS7003;43626;53.866;30.298;2022-12-18T14:04:39;82.8;62;36.8
57798;PMS7003;43626;53.866;30.298;2022-12-18T14:10:17;68.2;51;29.8
57798;PMS7003;43626;53.866;30.298;2022-12-18T14:15:26;49;37.8;21.6
57798;PMS7003;43626;53.866;30.298;2022-12-18T14:19:27;49;37.8;21.6
57798;PMS7003;43626;53.866;30.298;2022-12-18T14:25:14;63;45.8;25.6
57798;PMS7003;43626;53.866;30.298;2022-12-18T14:30:18;46.3;37;21.5
57798;PMS7003;43626;53.866;30.298;2022-12-18T14:35:12;35.6;29.2;17.8
57798;PMS7003;43626;53.866;30.298;2022-12-18T14:39:37;23.8;21.8;13
57798;PMS7003;43626;53.866;30.298;2022-12-18T14:44:49;31.4;25.6;14.8
57798;PMS7003;43626;53.866;30.298;2022-12-18T14:50:11;34.4;29.4;17.2
57798;PMS7003;43626;53.866;30.298;2022-12-18T14:54:39;35.4;29;17
57798;PMS7003;43626;53.866;30.298;2022-12-18T15:00:16;39.4;31.4;17.2
57798;PMS7003;43626;53.866;30.298;2022-12-18T15:05:18;39;31;16.4
57798;PMS7003;43626;53.866;30.298;2022-12-18T15:10:08;39;31;16.4
57798;PMS7003;43626;53.866;30.298;2022-12-18T15:14:31;43.6;32.6;18.6
57798;PMS7003;43626;53.866;30.298;2022-12-18T15:20:08;37.8;32.2;18.6
57798;PMS7003;43626;53.866;30.298;2022-12-18T15:25:21;54.4;37.4;20.2
57798;PMS7003;43626;53.866;30.298;2022-12-18T15:29:39;49.3;39;20.5
57798;PMS7003;43626;53.866;30.298;2022-12-18T15:34:49;33;25.2;13.8
57798;PMS7003;43626;53.866;30.298;2022-12-18T15:40:03;27.8;22;13
57798;PMS7003;43626;53.866;30.298;2022-12-18T15:44:39;29.4;24.4;13.6
57798;PMS7003;43626;53.866;30.298;2022-12-18T15:50:17;26.6;20.2;12.6
57798;PMS7003;43626;53.866;30.298;2022-12-18T15:55:18;23.4;19.8;10.8
57798;PMS7003;43626;53.866;30.298;2022-12-18T15:59:53;23.4;19.8;10.8
57798;PMS7003;43626;53.866;30.298;2022-12-18T16:04:27;28;19.2;11.2
57798;PMS7003;43626;53.866;30.298;2022-12-18T16:10:05;24.8;19.6;11.2
57798;PMS7003;43626;53.866;30.298;2022-12-18T16:15:07;25.8;23.6;13.2
57798;PMS7003;43626;53.866;30.298;2022-12-18T16:19:39;31.6;23.6;12.6
57798;PMS7003;43626;53.866;30.298;2022-12-18T16:24:27;28.8;23.4;12.8
57798;PMS7003;43626;53.866;30.298;2022-12-18T16:30:05;23.5;19.3;12
57798;PMS7003;43626;53.866;30.298;2022-12-18T16:34:27;32.6;25;14.6
57798;PMS7003;43626;53.866;30.298;2022-12-18T16:40:17;28;24;13.6
57798;PMS7003;43626;53.866;30.298;2022-12-18T16:45:17;25.2;21.4;11.4
57798;PMS7003;43626;53.866;30.298;2022-12-18T16:49:53;25.2;21.4;11.4
57798;PMS7003;43626;53.866;30.298;2022-12-18T16:54:39;30.6;22.2;13
57798;PMS7003;43626;53.866;30.298;2022-12-18T17:00:07;24.4;19.2;11
57798;PMS7003;43626;53.866;30.298;2022-12-18T17:05:05;29;22.6;13.2
57798;PMS7003;43626;53.866;30.298;2022-12-18T17:09:39;27;21.6;13.4
57798;PMS7003;43626;53.866;30.298;2022-12-18T17:14:41;30.8;24.2;13.4
57798;PMS7003;43626;53.866;30.298;2022-12-18T17:20:05;29;23.2;14
57798;PMS7003;43626;53.866;30.298;2022-12-18T17:24:37;28;23.2;12.8
57798;PMS7003;43626;53.866;30.298;2022-12-18T17:30:15;39.6;30.6;16.2
57798;PMS7003;43626;53.866;30.298;2022-12-18T17:35:17;40.8;31.6;17.2
57798;PMS7003;43626;53.866;30.298;2022-12-18T17:39:53;40.8;31.6;17.2
57798;PMS7003;43626;53.866;30.298;2022-12-18T17:44:27;35.6;29.6;16.4
57798;PMS7003;43626;53.866;30.298;2022-12-18T17:50:17;23.6;18.8;11.2
57798;PMS7003;43626;53.866;30.298;2022-12-18T17:55:15;26;21.6;11.8
57798;PMS7003;43626;53.866;30.298;2022-12-18T17:59:27;26;21.6;11.8
57798;PMS7003;43626;53.866;30.298;2022-12-18T18:05:05;27.6;21.8;13.4
57798;PMS7003;43626;53.866;30.298;2022-12-18T18:10:07;28.6;24.8;13
57798;PMS7003;43626;53.866;30.298;2022-12-18T18:15:15;24.6;19.2;10.8
57798;PMS7003;43626;53.866;30.298;2022-12-18T18:20:17;28.2;22.4;12.6
57798;PMS7003;43626;53.866;30.298;2022-12-18T18:24:49;28.2;22.4;12.6
57798;PMS7003;43626;53.866;30.298;2022-12-18T18:29:53;29.8;22.5;13
57798;PMS7003;43626;53.866;30.298;2022-12-18T18:34:49;32.8;24.8;14
57798;PMS7003;43626;53.866;30.298;2022-12-18T18:40:15;31.8;26.4;15
57798;PMS7003;43626;53.866;30.298;2022-12-18T18:45:13;27;21.8;13.2
57798;PMS7003;43626;53.866;30.298;2022-12-18T18:49:27;27;21.8;13.2
57798;PMS7003;43626;53.866;30.298;2022-12-18T18:55:17;24.2;19.8;10.4
57798;PMS7003;43626;53.866;30.298;2022-12-18T19:00:05;24.2;19.8;10.4
57798;PMS7003;43626;53.866;30.298;2022-12-18T19:04:51;25.2;20.6;10.4
57798;PMS7003;43626;53.866;30.298;2022-12-18T19:10:15;25.6;22;12.2
57798;PMS7003;43626;53.866;30.298;2022-12-18T19:14:39;25.6;22;12.2
57798;PMS7003;43626;53.866;30.298;2022-12-18T19:19:39;30.8;25.4;13
57798;PMS7003;43626;53.866;30.298;2022-12-18T19:24:27;24.8;20;12.4
57798;PMS7003;43626;53.866;30.298;2022-12-18T19:30:17;33.3;28.8;17.3
57798;PMS7003;43626;53.866;30.298;2022-12-18T19:35:17;24.4;21.2;13.2
57798;PMS7003;43626;53.866;30.298;2022-12-18T19:39:51;24.4;21.2;13.2
57798;PMS7003;43626;53.866;30.298;2022-12-18T19:45:07;23;18;10.8
57798;PMS7003;43626;53.866;30.298;2022-12-18T19:50:05;20.6;16.8;9.8
57798;PMS7003;43626;53.866;30.298;2022-12-18T19:55:15;26.2;19;11
57798;PMS7003;43626;53.866;30.298;2022-12-18T20:00:17;17.8;14.6;7.6
57798;PMS7003;43626;53.866;30.298;2022-12-18T20:05:01;17.8;14.6;7.6
57798;PMS7003;43626;53.866;30.298;2022-12-18T20:09:27;19.8;16.4;8.6
57798;PMS7003;43626;53.866;30.298;2022-12-18T20:14:27;19.4;15.6;8.8
57798;PMS7003;43626;53.866;30.298;2022-12-18T20:20:17;21.8;18.4;11
57798;PMS7003;43626;53.866;30.298;2022-12-18T20:25:15;23.2;19.2;10.2
57798;PMS7003;43626;53.866;30.298;2022-12-18T20:29:27;23.2;19.2;10.2
57798;PMS7003;43626;53.866;30.298;2022-12-18T20:34:29;24.3;19.3;11.3
57798;PMS7003;43626;53.866;30.298;2022-12-18T20:40:15;23.4;16.8;10.2
57798;PMS7003;43626;53.866;30.298;2022-12-18T20:45:15;22;18.4;11
57798;PMS7003;43626;53.866;30.298;2022-12-18T20:50:17;29.4;22.4;12.4
57798;PMS7003;43626;53.866;30.298;2022-12-18T20:54:51;29.4;22.4;12.4
57798;PMS7003;43626;53.866;30.298;2022-12-18T20:59:53;25.6;19.8;11
57798;PMS7003;43626;53.866;30.298;2022-12-18T21:04:39;27.8;20.2;11.4
57798;PMS7003;43626;53.866;30.298;2022-12-18T21:10:15;32.6;25.2;13.4
57798;PMS7003;43626;53.866;30.298;2022-12-18T21:15:15;27.8;20.2;11.2
57798;PMS7003;43626;53.866;30.298;2022-12-18T21:19:39;27.8;20.2;11.2
57798;PMS7003;43626;53.866;30.298;2022-12-18T21:25:05;22;19;10.6
57798;PMS7003;43626;53.866;30.298;2022-12-18T21:30:07;19.4;16.8;9.2
57798;PMS7003;43626;53.866;30.298;2022-12-18T21:35:15;20.6;17.6;10
57798;PMS7003;43626;53.866;30.298;2022-12-18T21:40:17;21.6;15.4;8.8
57798;PMS7003;43626;53.866;30.298;2022-12-18T21:44:49;21.6;15.4;8.8
57798;PMS7003;43626;53.866;30.298;2022-12-18T21:50:13;26.2;19.2;10.8
57798;PMS7003;43626;53.866;30.298;2022-12-18T21:54:37;26.2;19.2;10.8
57798;PMS7003;43626;53.866;30.298;2022-12-18T22:00:13;27.6;21.2;11.2
57798;PMS7003;43626;53.866;30.298;2022-12-18T22:05:13;28.2;23;12.4
57798;PMS7003;43626;53.866;30.298;2022-12-18T22:09:37;28.2;23;12.4
57798;PMS7003;43626;53.866;30.298;2022-12-18T22:15:13;28;22.8;14
57798;PMS7003;43626;53.866;30.298;2022-12-18T22:20:03;28;22.8;14
57798;PMS7003;43626;53.866;30.298;2022-12-18T22:25:09;30.8;22.6;12.6
57798;PMS7003;43626;53.866;30.298;2022-12-18T22:29:27;25;21.4;12.2
57798;PMS7003;43626;53.866;30.298;2022-12-18T22:34:45;23.5;19.3;11.8
57798;PMS7003;43626;53.866;30.298;2022-12-18T22:39:47;26.4;21.8;11.4
57798;PMS7003;43626;53.866;30.298;2022-12-18T22:44:37;28.2;22.6;13
57798;PMS7003;43626;53.866;30.298;2022-12-18T22:50:09;26.4;21.2;12.2
57798;PMS7003;43626;53.866;30.298;2022-12-18T22:54:45;24.6;23.2;12.6
57798;PMS7003;43626;53.866;30.298;2022-12-18T22:59:35;27.6;22.8;12.2
57798;PMS7003;43626;53.866;30.298;2022-12-18T23:04:59;26.2;20.2;11.2
57798;PMS7003;43626;53.866;30.298;2022-12-18T23:10:01;26.4;20.8;11
57798;PMS7003;43626;53.866;30.298;2022-12-18T23:15:11;24.2;18.6;10
57798;PMS7003;43626;53.866;30.298;2022-12-18T23:19:35;24.2;18.6;10
57798;PMS7003;43626;53.866;30.298;2022-12-18T23:24:37;25.8;20.8;10.4
57798;PMS7003;43626;53.866;30.298;2022-12-18T23:29:51;25.8;20.2;10.4
57798;PMS7003;43626;53.866;30.298;2022-12-18T23:34:35;30;20.8;12
57798;PMS7003;43626;53.866;30.298;2022-12-18T23:40:11;22.2;19.2;10.2
57798;PMS7003;43626;53.866;30.298;2022-12-18T23:44:57;22.2;19.2;10.2
57798;PMS7003;43626;53.866;30.298;2022-12-18T23:50:13;25.4;20.2;10.6
57798;PMS7003;43626;53.866;30.298;2022-12-18T23:54:49;25.4;20.2;10.6
